createdAt,value
2023-07-16T00:00:22.470Z,22.40
2023-07-16T00:05:31.508Z,22.39
2023-07-16T00:10:39.239Z,22.40
2023-07-16T00:15:46.705Z,22.41
2023-07-16T00:20:52.303Z,22.39
2023-07-16T00:25:59.403Z,22.34
2023-07-16T00:31:06.657Z,22.28
2023-07-16T00:36:12.265Z,22.23
2023-07-16T00:41:19.420Z,22.17
2023-07-16T00:46:27.838Z,22.11
2023-07-16T00:51:35.050Z,22.06
2023-07-16T00:56:42.368Z,22.01
2023-07-16T01:01:49.772Z,21.98
2023-07-16T01:06:58.015Z,21.94
2023-07-16T01:12:07.310Z,21.91
2023-07-16T01:17:14.485Z,21.88
2023-07-16T01:22:43.560Z,21.84
2023-07-16T01:28:25.312Z,21.79
2023-07-16T01:33:34.242Z,21.73
2023-07-16T01:38:41.657Z,21.70
2023-07-16T01:43:48.882Z,21.69
2023-07-16T01:48:56.082Z,21.65
2023-07-16T01:54:03.141Z,21.60
2023-07-16T01:59:11.826Z,21.56
2023-07-16T02:04:19.018Z,21.51
2023-07-16T02:09:26.584Z,21.46
2023-07-16T02:14:33.831Z,21.41
2023-07-16T02:19:39.515Z,21.39
2023-07-16T02:24:46.947Z,21.37
2023-07-16T02:29:54.341Z,21.36
2023-07-16T02:35:01.490Z,21.38
2023-07-16T02:40:12.769Z,21.39
2023-07-16T02:45:23.588Z,21.39
2023-07-16T02:50:30.763Z,21.37
2023-07-16T02:55:38.369Z,21.34
2023-07-16T03:00:45.599Z,21.29
2023-07-16T03:05:52.774Z,21.24
2023-07-16T03:10:59.795Z,21.19
2023-07-16T03:16:06.015Z,21.18
2023-07-16T03:21:13.133Z,21.16
2023-07-16T03:26:20.251Z,21.13
2023-07-16T03:31:29.728Z,21.11
2023-07-16T03:36:37.730Z,21.16
2023-07-16T03:41:45.013Z,21.31
2023-07-16T03:46:52.602Z,21.64
2023-07-16T03:51:59.909Z,22.12
2023-07-16T03:57:08.776Z,22.67
2023-07-16T04:02:16.066Z,23.17
2023-07-16T04:07:23.347Z,23.58
2023-07-16T04:12:28.904Z,23.93
2023-07-16T04:17:36.324Z,24.16
2023-07-16T04:22:43.516Z,23.95
2023-07-16T04:27:48.977Z,23.63
2023-07-16T04:32:56.261Z,23.32
2023-07-16T04:38:03.527Z,23.08
2023-07-16T04:43:09.101Z,22.99
2023-07-16T04:48:16.260Z,22.95
2023-07-16T04:53:24.193Z,23.02
2023-07-16T04:58:31.401Z,23.20
2023-07-16T05:03:36.941Z,23.54
2023-07-16T05:08:45.500Z,24.32
2023-07-16T05:13:53.988Z,25.43
2023-07-16T05:19:01.062Z,26.37
2023-07-16T05:24:08.740Z,27.13
2023-07-16T05:29:15.817Z,27.89
2023-07-16T05:34:22.974Z,28.55
2023-07-16T05:39:30.093Z,29.08
2023-07-16T05:44:38.311Z,29.61
2023-07-16T05:49:46.101Z,30.10
2023-07-16T05:54:53.337Z,30.46
2023-07-16T06:00:00.591Z,30.73
2023-07-16T06:05:09.035Z,31.04
2023-07-16T06:10:16.709Z,31.25
2023-07-16T06:15:24.396Z,31.36
2023-07-16T06:20:31.579Z,31.53
2023-07-16T06:25:38.901Z,31.73
2023-07-16T06:30:46.026Z,31.84
2023-07-16T06:35:53.397Z,31.94
2023-07-16T06:41:00.807Z,32.13
2023-07-16T06:46:08.060Z,32.40
2023-07-16T06:51:15.169Z,32.72
2023-07-16T06:56:22.370Z,33.13
2023-07-16T07:01:30.220Z,33.48
2023-07-16T07:06:37.336Z,33.76
2023-07-16T07:11:44.506Z,34.03
2023-07-16T07:16:51.613Z,34.47
2023-07-16T07:21:58.982Z,35.03
2023-07-16T07:27:07.147Z,35.35
2023-07-16T07:32:14.601Z,35.33
2023-07-16T07:37:22.038Z,35.56
2023-07-16T07:42:31.146Z,35.89
2023-07-16T07:47:38.522Z,36.10
2023-07-16T07:52:45.686Z,36.60
2023-07-16T07:57:52.918Z,37.14
2023-07-16T08:03:02.994Z,37.57
2023-07-16T08:08:10.310Z,37.32
2023-07-16T08:13:17.511Z,36.63
2023-07-16T08:18:24.879Z,35.91
2023-07-16T08:23:32.583Z,35.22
2023-07-16T08:28:41.237Z,34.46
2023-07-16T08:33:50.768Z,33.73
2023-07-16T08:38:57.914Z,33.32
2023-07-16T08:44:05.175Z,33.02
2023-07-16T08:49:13.488Z,32.83
2023-07-16T08:54:21.230Z,32.75
2023-07-16T08:59:28.903Z,32.69
2023-07-16T09:04:36.857Z,32.77
2023-07-16T09:09:44.050Z,32.76
2023-07-16T09:14:52.016Z,32.50
2023-07-16T09:19:59.196Z,32.30
2023-07-16T09:25:06.815Z,32.13
2023-07-16T09:30:19.060Z,31.87
2023-07-16T09:35:26.447Z,31.48
2023-07-16T09:40:34.065Z,30.95
2023-07-16T09:45:41.652Z,30.50
2023-07-16T09:50:55.271Z,30.04
2023-07-16T09:56:06.699Z,29.54
2023-07-16T10:01:14.528Z,29.06
2023-07-16T10:06:21.986Z,28.63
2023-07-16T10:11:29.255Z,28.27
2023-07-16T10:16:41.463Z,27.97
2023-07-16T10:21:49.483Z,27.69
2023-07-16T10:26:56.639Z,27.37
2023-07-16T10:32:04.308Z,27.15
2023-07-16T10:37:11.545Z,26.88
2023-07-16T10:42:19.600Z,26.67
2023-07-16T10:47:31.803Z,26.42
2023-07-16T10:52:39.884Z,26.09
2023-07-16T10:57:47.304Z,25.73
2023-07-16T11:02:55.539Z,25.42
2023-07-16T11:08:02.953Z,25.22
2023-07-16T11:13:10.131Z,25.14
2023-07-16T11:18:17.428Z,25.09
2023-07-16T11:23:25.540Z,25.04
2023-07-16T11:28:40.902Z,25.07
2023-07-16T11:33:48.649Z,25.16
2023-07-16T11:38:56.208Z,25.24
2023-07-16T11:44:05.050Z,25.33
2023-07-16T11:49:12.168Z,25.61
2023-07-16T11:54:19.566Z,25.99
2023-07-16T11:59:26.867Z,26.47
2023-07-16T12:04:34.057Z,26.95
2023-07-16T12:09:41.734Z,27.23
2023-07-16T12:14:48.858Z,27.31
2023-07-16T12:20:11.320Z,27.53
2023-07-16T12:25:21.207Z,27.81
2023-07-16T12:30:28.439Z,28.01
2023-07-16T12:35:35.721Z,28.18
2023-07-16T12:40:43.059Z,28.30
2023-07-16T12:45:50.263Z,28.34
2023-07-16T12:50:58.135Z,28.58
2023-07-16T12:56:05.294Z,28.87
2023-07-16T13:01:12.623Z,29.08
2023-07-16T13:06:20.058Z,29.25
2023-07-16T13:11:28.112Z,29.41
2023-07-16T13:16:35.358Z,29.50
2023-07-16T13:21:42.598Z,29.48
2023-07-16T13:26:49.762Z,29.46
2023-07-16T13:31:57.457Z,29.44
2023-07-16T13:37:05.018Z,29.48
2023-07-16T13:42:22.507Z,29.61
2023-07-16T13:47:30.826Z,29.66
2023-07-16T13:52:38.849Z,29.71
2023-07-16T13:57:47.007Z,29.76
2023-07-16T14:02:55.767Z,29.70
2023-07-16T14:08:03.079Z,29.54
2023-07-16T14:13:10.383Z,29.51
2023-07-16T14:18:17.657Z,29.44
2023-07-16T14:23:25.079Z,29.43
2023-07-16T14:28:32.467Z,29.53
2023-07-16T14:33:41.019Z,29.72
2023-07-16T14:38:48.252Z,29.61
2023-07-16T14:43:57.657Z,29.29
2023-07-16T14:49:12.321Z,29.02
2023-07-16T14:54:22.139Z,28.88
2023-07-16T14:59:29.330Z,28.82
2023-07-16T15:04:39.618Z,28.88
2023-07-16T15:10:00.272Z,28.99
2023-07-16T15:15:09.377Z,29.06
2023-07-16T15:20:21.521Z,29.07
2023-07-16T15:25:29.450Z,29.04
2023-07-16T15:30:36.994Z,28.82
2023-07-16T15:35:47.226Z,28.65
2023-07-16T15:40:58.136Z,28.52
2023-07-16T15:46:05.921Z,28.50
2023-07-16T15:51:13.266Z,28.56
2023-07-16T15:56:20.374Z,28.56
2023-07-16T16:01:28.424Z,28.54
2023-07-16T16:06:36.985Z,28.53
2023-07-16T16:11:46.590Z,28.58
2023-07-16T16:17:06.325Z,28.60
2023-07-16T16:22:14.511Z,28.61
2023-07-16T16:27:21.722Z,28.58
2023-07-16T16:32:28.976Z,28.57
2023-07-16T16:37:36.184Z,28.62
2023-07-16T16:42:45.142Z,28.69
2023-07-16T16:47:52.995Z,28.88
2023-07-16T16:53:00.719Z,29.07
2023-07-16T16:58:09.316Z,29.14
2023-07-16T17:03:16.716Z,29.14
2023-07-16T17:08:23.920Z,29.09
2023-07-16T17:13:35.260Z,29.02
2023-07-16T17:18:44.430Z,28.98
2023-07-16T17:23:51.760Z,28.95
2023-07-16T17:28:59.059Z,28.90
2023-07-16T17:34:06.782Z,28.80
2023-07-16T17:39:15.120Z,28.69
2023-07-16T17:44:22.484Z,28.59
2023-07-16T17:49:30.035Z,28.48
2023-07-16T17:54:37.288Z,28.41
2023-07-16T17:59:45.334Z,28.35
2023-07-16T18:04:54.526Z,28.24
2023-07-16T18:10:03.935Z,28.16
2023-07-16T18:15:13.361Z,28.10
2023-07-16T18:20:21.050Z,28.04
2023-07-16T18:25:28.815Z,27.95
2023-07-16T18:30:36.122Z,27.86
2023-07-16T18:35:46.795Z,27.74
2023-07-16T18:40:54.044Z,27.67
2023-07-16T18:46:01.307Z,27.61
2023-07-16T18:51:08.737Z,27.50
2023-07-16T18:56:16.380Z,27.39
2023-07-16T19:01:23.711Z,27.24
2023-07-16T19:06:31.093Z,27.10
2023-07-16T19:11:38.962Z,26.98
2023-07-16T19:16:46.367Z,26.84
2023-07-16T19:21:53.752Z,26.72
2023-07-16T19:27:01.176Z,26.55
2023-07-16T19:32:09.964Z,26.38
2023-07-16T19:37:17.266Z,26.21
2023-07-16T19:42:25.816Z,26.10
2023-07-16T19:47:35.098Z,26.04
2023-07-16T19:52:42.507Z,25.88
2023-07-16T19:57:50.065Z,25.62
2023-07-16T20:02:57.291Z,25.39
2023-07-16T20:08:07.021Z,25.18
2023-07-16T20:13:14.196Z,24.98
2023-07-16T20:18:21.706Z,24.74
2023-07-16T20:23:29.483Z,24.55
2023-07-16T20:28:36.824Z,24.31
2023-07-16T20:33:44.065Z,24.03
2023-07-16T20:38:51.238Z,23.73
2023-07-16T20:43:58.650Z,23.45
2023-07-16T20:49:05.982Z,23.27
2023-07-16T20:54:13.281Z,23.14
2023-07-16T20:59:18.910Z,23.01
2023-07-16T21:04:26.105Z,22.82
2023-07-16T21:09:31.668Z,22.58
2023-07-16T21:14:38.849Z,22.36
2023-07-16T21:19:44.525Z,22.22
2023-07-16T21:24:51.840Z,22.13
2023-07-16T21:29:57.896Z,22.16
2023-07-16T21:35:06.184Z,22.20
2023-07-16T21:40:14.047Z,22.25
2023-07-16T21:45:21.581Z,22.15
2023-07-16T21:50:29.250Z,22.04
2023-07-16T21:55:36.279Z,21.94
2023-07-16T22:00:43.395Z,21.83
2023-07-16T22:05:50.563Z,21.68
2023-07-16T22:10:57.710Z,21.50
2023-07-16T22:16:05.249Z,21.33
2023-07-16T22:21:12.754Z,21.23
2023-07-16T22:26:19.272Z,21.18
2023-07-16T22:31:27.158Z,21.15
2023-07-16T22:36:34.324Z,21.14
2023-07-16T22:41:41.834Z,21.12
2023-07-16T22:46:47.400Z,21.09
2023-07-16T22:51:54.617Z,21.00
2023-07-16T22:57:01.892Z,20.86
2023-07-16T23:02:09.216Z,20.79
2023-07-16T23:07:16.362Z,20.76
2023-07-16T23:12:24.070Z,20.67
2023-07-16T23:17:31.153Z,20.52
2023-07-16T23:22:39.164Z,20.36
2023-07-16T23:27:46.452Z,20.20
2023-07-16T23:32:53.526Z,20.09
2023-07-16T23:38:02.015Z,19.99
2023-07-16T23:43:09.139Z,19.86
2023-07-16T23:48:16.563Z,19.72
2023-07-16T23:53:22.207Z,19.61
2023-07-16T23:58:29.305Z,19.47
